Nearby METAR Reports

 

EGWC - Cosford Raf, United Kingdom
Distance from station: SSW 22km
Updated: 22/05/2019 15:50
NOT Current
Partly cloudy
Partly cloudy
 Wind from W
Wind: W 9 mph , 15 km/h
Temperature: 19°C
Dew Point: 4°C
Humidity: 37%
Barometer: 1018 hPa
Clouds: Partly cloudy
Visibility: 6 miles , 10 km
Cloud details: Partly cloudy 1372 m
2019/05/22 14:50 EGWC 221450Z 28008KT 9999 SCT045 19/04 Q1018 BLU
EGOS - Shawbury Raf, United Kingdom
Distance from station: W 37km
Updated: 23/05/2019 17:50
Clear
Clear
 Wind from W
Wind: W 12 mph , 19 km/h
Temperature: 19°C
Dew Point: 5°C
Humidity: 40%
Barometer: 1015 hPa
Summary: Clear
Visibility: greater than 7 miles , 10 km
2019/05/23 16:50 EGOS 231650Z 26010KT CAVOK 19/05 Q1015 BLU
 
EGBB - Birmingham Airpo, United Kingdom
Distance from station: SE 44km
Updated: 23/05/2019 18:20
Clear
Clear
 Wind from W
Wind: W 6 mph , 9 km/h
Temperature: 20°C
Dew Point: 5°C
Humidity: 38%
Barometer: 1014 hPa
Summary: Clear
Visibility: greater than 7 miles , 10 km
2019/05/23 17:20 EGBB 231720Z 27005KT 230V340 CAVOK 20/05 Q1014
EGNX - East Midlands, United Kingdom
Distance from station: E 54km
Updated: 23/05/2019 18:20
Clear
Clear
 Wind from WNW
Wind: WNW 12 mph , 19 km/h
Temperature: 19°C
Dew Point: 3°C
Humidity: 35%
Barometer: 1014 hPa
Summary: Clear
Visibility: greater than 7 miles , 10 km
2019/05/23 17:20 EGNX 231720Z 29010KT CAVOK 19/03 Q1014
 
EGCC - Manchester Intl, United Kingdom
Distance from station: N 63km
Updated: 23/05/2019 18:20
Clear
Clear
 Wind from WNW
Wind: WNW 13 mph , 20 km/h
Temperature: 17°C
Dew Point: 8°C
Humidity: 56%
Barometer: 1015 hPa
Clouds: Clear
Visibility: 6 miles , 10 km
2019/05/23 17:20 EGCC 231720Z AUTO 30011KT 9999 NCD 17/08 Q1015 NOSIG
EGBE - Coventry Airport, United Kingdom
Distance from station: SE 65km
Updated: 18/07/2017 14:50
NOT Current
Clear
Clear
 Wind from E
Wind: E 16 mph , 26 km/h
Temperature: 27°C
Heat Index: 27°C
Dew Point: 14°C
Humidity: 45%
Barometer: 1015 hPa
Summary: Clear
Visibility: greater than 7 miles , 10 km
2017/07/18 13:50 EGBE 181350Z 10014KT 060V120 CAVOK 27/14 Q1015
 
EGNR - Hawarden (aut), United Kingdom
Distance from station: NW 70km
Updated: 23/05/2019 18:20
Few Clouds
Few Clouds
 Wind from NNW
Wind: NNW 10 mph , 17 km/h
Temperature: 17°C
Dew Point: 9°C
Humidity: 59%
Barometer: 1016 hPa
Clouds: Few Clouds
Visibility: 6 miles , 10 km
Cloud details: Few Clouds 1067 m
2019/05/23 17:20 EGNR 231720Z 33009KT 9999 FEW035 17/09 Q1016
EGGP - Liverpool Airpor, United Kingdom
Distance from station: NW 76km
Updated: 23/05/2019 18:20
Clear
Clear
 Wind from WNW
Wind: WNW 15 mph , 24 km/h
Temperature: 17°C
Dew Point: 9°C
Humidity: 59%
Barometer: 1016 hPa
Summary: Clear
Visibility: greater than 7 miles , 10 km
2019/05/23 17:20 EGGP 231720Z 30013KT CAVOK 17/09 Q1016